Time;durP1;ratioP1;P1;durP2;ratioP2;P2;SDS_P1;SDS_P2;PMS_P1;PMS_P2;Temp;Humidity;BMP_temperature;BMP_pressure;BME280_temperature;BME280_humidity;BME280_pressure;Samples;Min_cycle;Max_cycle;Signal;HPM_P1;HPM_P2
2023/03/13 00:01:18;;;;;;;30.20;6.63;;;;;;;;;;5000256;28;20189;-79
2023/03/13 00:03:44;;;;;;;24.00;6.43;;;;;;;;;;5033761;28;20235;-79
2023/03/13 00:06:10;;;;;;;23.93;6.40;;;;;;;;;;5016574;28;20180;-90
2023/03/13 00:08:37;;;;;;;31.90;6.63;;;;;;;;;;5015872;28;20188;-89
2023/03/13 00:11:07;;;;;;;25.13;5.87;;;;;;;;;;5016017;28;20204;-82
2023/03/13 00:13:34;;;;;;;25.00;6.43;;;;;;;;;;5016602;28;20177;-82
2023/03/13 00:16:01;;;;;;;26.70;6.33;;;;;;;;;;5017143;28;20176;-83
2023/03/13 00:18:27;;;;;;;28.20;6.63;;;;;;;;;;5016457;28;20180;-82
2023/03/13 00:21:00;;;;;;;28.00;6.83;;;;;;;;;;5016741;28;20172;-81
2023/03/13 00:23:26;;;;;;;28.30;6.27;;;;;;;;;;5034275;28;20177;-89
2023/03/13 00:25:56;;;;;;;29.43;6.53;;;;;;;;;;5015565;28;20185;-90
2023/03/13 00:28:22;;;;;;;23.07;5.57;;;;;;;;;;4999775;28;20193;-88
2023/03/13 00:30:48;;;;;;;26.13;6.87;;;;;;;;;;4999852;28;20184;-82
2023/03/13 00:33:14;;;;;;;30.97;6.43;;;;;;;;;;5000042;28;20227;-82
2023/03/13 00:35:40;;;;;;;34.33;6.53;;;;;;;;;;4999772;28;20189;-82
2023/03/13 00:38:06;;;;;;;25.07;5.87;;;;;;;;;;4999777;28;20188;-82
2023/03/13 00:40:32;;;;;;;25.90;6.30;;;;;;;;;;5016433;28;20180;-82
2023/03/13 00:42:58;;;;;;;26.87;5.70;;;;;;;;;;4995867;28;20193;-82
2023/03/13 00:45:25;;;;;;;22.87;5.80;;;;;;;;;;5003482;28;20189;-89
2023/03/13 00:47:51;;;;;;;32.27;6.23;;;;;;;;;;5020695;28;20263;-78
2023/03/13 00:50:17;;;;;;;22.13;5.97;;;;;;;;;;5016241;28;20185;-79
2023/03/13 00:52:44;;;;;;;25.03;6.20;;;;;;;;;;4999939;28;20354;-79
2023/03/13 00:55:10;;;;;;;28.63;6.13;;;;;;;;;;5033179;28;20216;-78
2023/03/13 00:57:36;;;;;;;20.43;6.07;;;;;;;;;;5000299;28;20207;-79
2023/03/13 01:00:05;;;;;;;25.63;6.37;;;;;;;;;;5015178;28;20183;-79
2023/03/13 01:02:31;;;;;;;30.83;6.07;;;;;;;;;;5001595;28;20210;-79
2023/03/13 01:04:57;;;;;;;24.13;5.37;;;;;;;;;;5013266;28;20184;-78
2023/03/13 01:07:23;;;;;;;25.47;5.90;;;;;;;;;;5009063;28;20187;-78
2023/03/13 01:09:49;;;;;;;25.20;6.40;;;;;;;;;;5011048;28;20192;-78
2023/03/13 01:12:15;;;;;;;37.27;6.43;;;;;;;;;;5012971;28;20208;-78
2023/03/13 01:14:41;;;;;;;28.57;6.00;;;;;;;;;;5010927;28;20272;-78
2023/03/13 01:17:07;;;;;;;35.77;7.13;;;;;;;;;;4998868;28;20216;-78
2023/03/13 01:19:33;;;;;;;29.03;6.37;;;;;;;;;;5019272;28;20275;-79
2023/03/13 01:21:59;;;;;;;26.73;6.40;;;;;;;;;;5019147;28;20251;-78
2023/03/13 01:24:25;;;;;;;34.60;7.20;;;;;;;;;;5019396;28;20193;-78
2023/03/13 01:26:51;;;;;;;26.17;6.93;;;;;;;;;;5003149;28;20184;-78
2023/03/13 01:29:17;;;;;;;28.03;6.37;;;;;;;;;;5003241;28;20238;-78
2023/03/13 01:31:43;;;;;;;29.77;6.93;;;;;;;;;;5019319;28;20240;-78
2023/03/13 01:34:10;;;;;;;32.67;6.87;;;;;;;;;;5002182;28;20189;-78
2023/03/13 01:36:36;;;;;;;29.20;7.30;;;;;;;;;;5019183;28;20187;-78
2023/03/13 01:39:02;;;;;;;25.80;7.07;;;;;;;;;;5019109;28;20203;-83
2023/03/13 01:41:29;;;;;;;24.60;6.13;;;;;;;;;;5036334;28;20267;-78
2023/03/13 01:43:55;;;;;;;23.33;6.90;;;;;;;;;;5036066;28;20184;-79
2023/03/13 01:46:29;;;;;;;28.43;6.70;;;;;;;;;;5018490;28;20176;-79
2023/03/13 01:48:58;;;;;;;25.80;6.40;;;;;;;;;;4994004;28;20253;-79
2023/03/13 01:51:26;;;;;;;24.40;6.70;;;;;;;;;;4995684;28;20210;-79
2023/03/13 01:54:15;;;;;;;23.90;6.47;;;;;;;;;;4995533;28;20182;-90
2023/03/13 01:56:47;;;;;;;30.80;6.90;;;;;;;;;;4985165;28;20218;-90
2023/03/13 01:59:14;;;;;;;24.40;6.07;;;;;;;;;;4978864;28;20171;-91
2023/03/13 02:01:42;;;;;;;26.00;6.60;;;;;;;;;;4995638;28;20213;-90
2023/03/13 02:04:08;;;;;;;21.13;5.70;;;;;;;;;;4995374;28;20186;-91
2023/03/13 02:06:35;;;;;;;24.40;5.50;;;;;;;;;;4995803;28;20190;-91
2023/03/13 02:09:07;;;;;;;19.60;5.93;;;;;;;;;;4995481;28;20186;-90
2023/03/13 02:11:36;;;;;;;20.27;6.20;;;;;;;;;;4995530;28;20288;-79
2023/03/13 02:14:03;;;;;;;21.27;5.50;;;;;;;;;;4990526;28;20205;-79
2023/03/13 02:16:29;;;;;;;15.37;5.77;;;;;;;;;;4995170;28;20196;-82
2023/03/13 02:18:55;;;;;;;18.77;5.93;;;;;;;;;;4978868;28;20193;-82
2023/03/13 02:21:31;;;;;;;14.10;5.20;;;;;;;;;;4995031;28;20243;-82
2023/03/13 02:24:01;;;;;;;15.93;5.70;;;;;;;;;;4995269;28;20197;-82
2023/03/13 02:26:27;;;;;;;14.63;5.57;;;;;;;;;;4995053;28;20178;-83
2023/03/13 02:28:53;;;;;;;13.50;5.43;;;;;;;;;;4978418;28;20197;-79
2023/03/13 02:31:19;;;;;;;15.77;5.67;;;;;;;;;;4979133;28;20209;-90
2023/03/13 02:33:45;;;;;;;16.97;6.43;;;;;;;;;;4979400;28;20186;-89
2023/03/13 02:36:13;;;;;;;14.77;5.93;;;;;;;;;;4979140;28;20205;-91
2023/03/13 02:38:46;;;;;;;13.23;6.23;;;;;;;;;;4994600;28;20182;-82
2023/03/13 02:41:13;;;;;;;18.17;6.40;;;;;;;;;;4995042;28;20219;-82
2023/03/13 02:43:39;;;;;;;16.67;6.53;;;;;;;;;;4994941;28;20193;-90
2023/03/13 02:46:05;;;;;;;18.07;7.10;;;;;;;;;;4978566;28;20233;-90
2023/03/13 02:48:33;;;;;;;15.37;6.40;;;;;;;;;;4994620;28;20249;-91
2023/03/13 02:50:59;;;;;;;15.77;6.70;;;;;;;;;;4994844;28;20193;-91
2023/03/13 02:53:25;;;;;;;17.40;7.70;;;;;;;;;;4994950;28;20188;-89
2023/03/13 02:55:52;;;;;;;20.90;8.00;;;;;;;;;;4994573;28;20193;-90
2023/03/13 02:58:18;;;;;;;20.43;7.70;;;;;;;;;;4978376;28;20182;-91
2023/03/13 03:00:44;;;;;;;20.50;8.10;;;;;;;;;;4978470;28;20217;-82
2023/03/13 03:03:10;;;;;;;13.27;7.23;;;;;;;;;;4994587;28;20210;-83
2023/03/13 03:05:36;;;;;;;15.90;7.90;;;;;;;;;;4994525;28;20190;-82
2023/03/13 03:08:02;;;;;;;15.03;7.73;;;;;;;;;;4978781;28;20229;-82
2023/03/13 03:10:28;;;;;;;17.67;8.23;;;;;;;;;;4994192;28;20252;-83
2023/03/13 03:12:54;;;;;;;15.20;8.07;;;;;;;;;;4995159;28;20213;-83
2023/03/13 03:15:21;;;;;;;18.70;7.80;;;;;;;;;;5010086;28;20190;-83
2023/03/13 03:17:47;;;;;;;13.10;8.33;;;;;;;;;;5008895;28;20182;-91
2023/03/13 03:20:13;;;;;;;11.37;7.80;;;;;;;;;;4978091;28;20196;-91
2023/03/13 03:22:39;;;;;;;17.30;9.90;;;;;;;;;;4994328;28;20185;-91
2023/03/13 03:25:06;;;;;;;20.60;10.10;;;;;;;;;;4994007;28;20190;-91
2023/03/13 03:27:32;;;;;;;16.47;9.43;;;;;;;;;;5010239;28;20208;-90
2023/03/13 03:29:58;;;;;;;19.00;9.80;;;;;;;;;;4977961;28;20225;-91
2023/03/13 03:32:24;;;;;;;17.37;9.97;;;;;;;;;;4995148;28;20236;-90
2023/03/13 03:34:50;;;;;;;20.23;10.63;;;;;;;;;;4993885;28;20186;-91
2023/03/13 03:37:16;;;;;;;17.00;9.87;;;;;;;;;;4993896;28;20193;-93
2023/03/13 03:39:43;;;;;;;20.10;10.17;;;;;;;;;;4978210;28;20217;-83
2023/03/13 03:42:09;;;;;;;18.17;10.30;;;;;;;;;;4993290;28;20190;-83
2023/03/13 03:44:35;;;;;;;19.60;10.13;;;;;;;;;;4991066;28;20201;-83
2023/03/13 03:47:01;;;;;;;22.30;10.80;;;;;;;;;;5005996;28;20231;-90
2023/03/13 03:49:27;;;;;;;14.90;10.13;;;;;;;;;;4978867;28;20181;-90
2023/03/13 03:51:53;;;;;;;19.00;10.20;;;;;;;;;;4959196;28;20219;-83
2023/03/13 03:54:19;;;;;;;15.47;9.80;;;;;;;;;;4974811;28;20329;-79
2023/03/13 03:56:45;;;;;;;19.13;10.77;;;;;;;;;;4994243;28;20186;-79
2023/03/13 03:59:11;;;;;;;15.60;9.60;;;;;;;;;;4993680;28;20197;-79
2023/03/13 04:01:37;;;;;;;16.07;9.23;;;;;;;;;;4977033;28;20247;-79
2023/03/13 04:04:03;;;;;;;14.47;9.87;;;;;;;;;;4993283;28;20261;-79
2023/03/13 04:06:30;;;;;;;16.40;10.00;;;;;;;;;;4977697;28;20186;-79
2023/03/13 04:08:55;;;;;;;16.47;10.73;;;;;;;;;;5010010;28;20241;-91
2023/03/13 04:11:21;;;;;;;12.27;9.77;;;;;;;;;;4988909;28;20218;-92
2023/03/13 04:13:47;;;;;;;12.80;9.77;;;;;;;;;;4984688;28;20214;-92
2023/03/13 04:16:13;;;;;;;14.27;9.63;;;;;;;;;;4992963;28;20186;-91
2023/03/13 04:18:39;;;;;;;14.57;9.33;;;;;;;;;;4993546;28;20193;-91
2023/03/13 04:21:06;;;;;;;13.73;9.77;;;;;;;;;;4976869;28;20190;-79
2023/03/13 04:23:32;;;;;;;13.70;9.63;;;;;;;;;;4993245;28;20213;-79
2023/03/13 04:25:58;;;;;;;16.03;9.43;;;;;;;;;;4977146;28;20236;-82
2023/03/13 04:28:24;;;;;;;14.10;9.57;;;;;;;;;;4977559;28;20268;-82
2023/03/13 04:30:51;;;;;;;12.50;9.67;;;;;;;;;;4993875;28;20190;-82
2023/03/13 04:33:17;;;;;;;13.13;10.27;;;;;;;;;;4993380;28;20213;-83
2023/03/13 04:35:43;;;;;;;12.87;9.80;;;;;;;;;;4993351;28;20193;-83
2023/03/13 04:38:09;;;;;;;14.03;10.10;;;;;;;;;;4996411;28;20186;-83
2023/03/13 04:40:35;;;;;;;14.27;9.90;;;;;;;;;;4981390;28;20182;-82
2023/03/13 04:43:01;;;;;;;14.37;10.40;;;;;;;;;;4998163;28;20177;-82
2023/03/13 04:45:27;;;;;;;15.03;10.60;;;;;;;;;;4996358;28;20186;-82
2023/03/13 04:47:53;;;;;;;15.63;10.87;;;;;;;;;;4981366;28;20241;-83
2023/03/13 04:50:19;;;;;;;14.30;10.47;;;;;;;;;;4981393;28;20249;-83
2023/03/13 04:52:46;;;;;;;18.47;10.43;;;;;;;;;;4996189;28;20218;-83
2023/03/13 04:55:12;;;;;;;13.53;10.00;;;;;;;;;;4977571;28;20273;-83
2023/03/13 04:57:38;;;;;;;12.60;10.07;;;;;;;;;;4967088;28;20190;-83
2023/03/13 05:00:07;;;;;;;13.97;10.27;;;;;;;;;;4980039;28;20208;-83
2023/03/13 05:02:33;;;;;;;15.73;10.43;;;;;;;;;;5021182;23;20292;-83
2023/03/13 05:04:59;;;;;;;13.40;10.63;;;;;;;;;;5015279;28;20195;-82
2023/03/13 05:07:25;;;;;;;14.30;10.13;;;;;;;;;;4999807;28;20181;-83
2023/03/13 05:09:51;;;;;;;15.43;9.83;;;;;;;;;;4995006;28;20186;-83
2023/03/13 05:12:17;;;;;;;11.70;10.13;;;;;;;;;;5015693;28;20209;-83
2023/03/13 05:14:43;;;;;;;13.57;10.07;;;;;;;;;;4999585;28;20197;-91
2023/03/13 05:17:11;;;;;;;13.37;10.10;;;;;;;;;;4998771;28;20193;-92
2023/03/13 05:19:37;;;;;;;13.67;10.73;;;;;;;;;;5017241;28;20204;-92
2023/03/13 05:22:03;;;;;;;13.33;9.73;;;;;;;;;;5015969;28;20192;-90
2023/03/13 05:24:29;;;;;;;14.37;9.73;;;;;;;;;;5016091;28;20191;-80
2023/03/13 05:26:55;;;;;;;11.23;9.50;;;;;;;;;;4999835;28;20268;-80
2023/03/13 05:29:21;;;;;;;13.93;8.50;;;;;;;;;;4999918;28;20256;-80
2023/03/13 05:31:47;;;;;;;12.43;9.27;;;;;;;;;;5016394;28;20209;-80
2023/03/13 05:34:13;;;;;;;12.40;8.87;;;;;;;;;;5000002;28;20261;-80
2023/03/13 05:36:39;;;;;;;12.93;8.90;;;;;;;;;;5000112;28;20186;-80
2023/03/13 05:39:05;;;;;;;11.50;8.70;;;;;;;;;;4999975;28;20188;-80
2023/03/13 05:41:31;;;;;;;10.93;8.90;;;;;;;;;;5014471;28;20504;-80
2023/03/13 05:43:57;;;;;;;12.85;9.20;;;;;;;;;;5014908;28;20410;-80
2023/03/13 05:46:23;;;;;;;12.23;8.07;;;;;;;;;;5015371;28;20185;-80
2023/03/13 05:48:51;;;;;;;10.60;7.87;;;;;;;;;;4999016;28;20181;-80
2023/03/13 05:51:17;;;;;;;11.73;7.43;;;;;;;;;;4994836;28;20186;-79
2023/03/13 05:53:43;;;;;;;9.77;7.33;;;;;;;;;;5012306;28;20178;-79
2023/03/13 05:56:09;;;;;;;11.80;7.17;;;;;;;;;;5013178;28;20189;-80
2023/03/13 05:58:35;;;;;;;9.77;6.97;;;;;;;;;;5013354;28;20192;-80
2023/03/13 06:01:11;;;;;;;11.13;7.30;;;;;;;;;;5014746;28;20308;-80
2023/03/13 06:03:37;;;;;;;7.97;6.40;;;;;;;;;;5015620;28;20239;-83
2023/03/13 06:06:03;;;;;;;9.50;7.00;;;;;;;;;;5016571;28;20188;-83
2023/03/13 06:08:31;;;;;;;9.50;6.50;;;;;;;;;;4995266;28;20185;-82
2023/03/13 06:11:01;;;;;;;7.90;6.73;;;;;;;;;;5012152;28;20178;-83
2023/03/13 06:13:27;;;;;;;8.57;6.10;;;;;;;;;;5009490;28;20209;-83
2023/03/13 06:15:54;;;;;;;9.83;5.97;;;;;;;;;;5011728;28;20232;-83
2023/03/13 06:18:20;;;;;;;8.97;6.20;;;;;;;;;;5011034;28;20186;-83
2023/03/13 06:20:47;;;;;;;8.30;6.10;;;;;;;;;;5011181;28;20186;-82
2023/03/13 06:23:13;;;;;;;6.13;5.40;;;;;;;;;;4995234;28;20186;-83
2023/03/13 06:25:39;;;;;;;8.20;5.40;;;;;;;;;;4995205;28;20186;-83
2023/03/13 06:28:05;;;;;;;10.47;5.70;;;;;;;;;;5011483;28;20182;-83
2023/03/13 06:30:31;;;;;;;8.80;5.67;;;;;;;;;;5011230;28;20243;-83
2023/03/13 06:32:58;;;;;;;7.70;5.47;;;;;;;;;;5011369;28;20300;-83
2023/03/13 06:35:24;;;;;;;8.97;5.27;;;;;;;;;;4995205;28;20258;-83
2023/03/13 06:37:50;;;;;;;8.43;4.93;;;;;;;;;;4996072;28;20174;-84
2023/03/13 06:40:16;;;;;;;9.57;5.17;;;;;;;;;;4994919;28;20301;-84
2023/03/13 06:42:42;;;;;;;7.37;4.87;;;;;;;;;;5011441;28;20273;-83
2023/03/13 06:45:10;;;;;;;8.57;5.33;;;;;;;;;;4994755;28;20182;-84
2023/03/13 06:47:36;;;;;;;8.03;4.43;;;;;;;;;;4995686;28;20221;-84
2023/03/13 06:50:02;;;;;;;7.33;4.67;;;;;;;;;;4994801;28;20189;-84
2023/03/13 06:52:28;;;;;;;7.43;4.73;;;;;;;;;;5010814;28;20226;-84
2023/03/13 06:54:54;;;;;;;9.57;4.20;;;;;;;;;;4994780;28;20193;-84
2023/03/13 06:57:20;;;;;;;9.63;4.33;;;;;;;;;;4994648;28;20190;-84
2023/03/13 06:59:46;;;;;;;9.07;4.47;;;;;;;;;;4992418;28;20190;-84
2023/03/13 07:02:12;;;;;;;10.47;4.60;;;;;;;;;;4992895;28;20261;-84
2023/03/13 07:04:38;;;;;;;10.00;4.50;;;;;;;;;;5009127;28;20180;-84
2023/03/13 07:07:04;;;;;;;8.30;4.50;;;;;;;;;;4995067;28;20186;-84
2023/03/13 07:09:30;;;;;;;10.27;4.30;;;;;;;;;;4993706;28;20285;-80
2023/03/13 07:11:57;;;;;;;9.40;3.93;;;;;;;;;;5010795;28;20209;-83
2023/03/13 07:14:23;;;;;;;8.93;3.93;;;;;;;;;;5011274;28;20182;-90
2023/03/13 07:16:49;;;;;;;7.87;3.93;;;;;;;;;;4994047;28;20220;-80
2023/03/13 07:19:16;;;;;;;15.10;4.10;;;;;;;;;;4994283;28;20185;-80
2023/03/13 07:21:42;;;;;;;8.63;3.80;;;;;;;;;;4994645;28;20276;-80
2023/03/13 07:24:08;;;;;;;9.67;3.70;;;;;;;;;;4994190;28;20182;-80
2023/03/13 07:26:34;;;;;;;7.43;3.83;;;;;;;;;;4994326;28;20186;-80
2023/03/13 07:29:00;;;;;;;8.93;3.87;;;;;;;;;;5010060;28;20192;-80
2023/03/13 07:31:28;;;;;;;9.07;4.00;;;;;;;;;;5009399;28;20182;-80
2023/03/13 07:33:55;;;;;;;9.27;3.67;;;;;;;;;;4993696;28;20177;-80
2023/03/13 07:36:21;;;;;;;9.97;3.57;;;;;;;;;;5009772;28;20184;-80
2023/03/13 07:38:51;;;;;;;10.13;3.80;;;;;;;;;;4993607;28;20215;-80
2023/03/13 07:41:18;;;;;;;11.50;4.37;;;;;;;;;;5010063;28;20174;-80
2023/03/13 07:43:44;;;;;;;8.70;3.80;;;;;;;;;;4993997;28;20214;-90
2023/03/13 07:46:14;;;;;;;10.77;3.87;;;;;;;;;;5010233;28;20228;-83
2023/03/13 07:48:41;;;;;;;9.23;3.93;;;;;;;;;;5010241;28;20170;-83
2023/03/13 07:51:12;;;;;;;11.20;3.80;;;;;;;;;;4993858;28;20190;-83
2023/03/13 07:53:38;;;;;;;12.23;3.90;;;;;;;;;;5010364;28;20190;-83
2023/03/13 07:56:10;;;;;;;7.90;3.60;;;;;;;;;;4993998;28;20182;-83
2023/03/13 07:58:37;;;;;;;10.07;4.20;;;;;;;;;;5009135;28;20419;-80
2023/03/13 08:01:15;;;;;;;10.93;4.15;;;;;;;;;;5009079;28;20433;-84
2023/03/13 08:03:41;;;;;;;9.48;3.90;;;;;;;;;;5009005;28;20507;-84
2023/03/13 08:06:08;;;;;;;9.27;4.10;;;;;;;;;;4992723;28;20491;-84
2023/03/13 08:08:35;;;;;;;10.20;4.25;;;;;;;;;;5009125;28;20421;-84
2023/03/13 08:11:02;;;;;;;10.32;4.07;;;;;;;;;;5008724;28;20421;-84
2023/03/13 08:13:28;;;;;;;9.50;4.00;;;;;;;;;;5008351;28;20507;-84
2023/03/13 08:16:01;;;;;;;9.37;3.53;;;;;;;;;;5009559;28;20182;-84
2023/03/13 08:18:27;;;;;;;7.93;3.20;;;;;;;;;;5010845;28;20185;-83
2023/03/13 08:20:53;;;;;;;6.43;2.93;;;;;;;;;;4990583;28;20182;-83
2023/03/13 08:23:19;;;;;;;9.17;3.70;;;;;;;;;;4993662;28;20235;-83
2023/03/13 08:25:45;;;;;;;7.57;3.07;;;;;;;;;;4996691;28;20181;-83
2023/03/13 08:28:11;;;;;;;4.73;3.20;;;;;;;;;;5012826;28;20180;-83
2023/03/13 08:30:37;;;;;;;10.23;3.20;;;;;;;;;;5012758;28;20181;-83
2023/03/13 08:33:03;;;;;;;6.50;3.10;;;;;;;;;;5012981;28;20212;-83
2023/03/13 08:35:30;;;;;;;7.27;3.27;;;;;;;;;;4997056;28;20208;-80
2023/03/13 08:37:56;;;;;;;7.80;3.20;;;;;;;;;;5010110;28;20247;-80
2023/03/13 08:40:22;;;;;;;7.73;2.77;;;;;;;;;;5003378;28;20178;-81
2023/03/13 08:42:49;;;;;;;8.03;3.40;;;;;;;;;;4985668;28;20236;-81
2023/03/13 08:45:15;;;;;;;5.23;3.10;;;;;;;;;;5004587;28;20181;-81
2023/03/13 08:47:41;;;;;;;8.57;3.40;;;;;;;;;;4988287;28;20209;-80
2023/03/13 08:50:07;;;;;;;6.43;3.23;;;;;;;;;;4988574;28;20213;-81
2023/03/13 08:52:33;;;;;;;8.90;3.27;;;;;;;;;;4996130;28;20209;-84
2023/03/13 08:54:59;;;;;;;5.27;3.17;;;;;;;;;;4996738;28;20193;-84
2023/03/13 08:57:25;;;;;;;5.53;3.00;;;;;;;;;;4996795;28;20209;-84
2023/03/13 08:59:51;;;;;;;7.03;2.77;;;;;;;;;;4996780;28;20280;-85
2023/03/13 09:02:19;;;;;;;8.47;3.30;;;;;;;;;;4996766;28;20233;-84
2023/03/13 09:04:46;;;;;;;5.77;2.97;;;;;;;;;;4997210;28;20196;-84
2023/03/13 09:07:12;;;;;;;6.00;3.00;;;;;;;;;;4996751;28;20224;-91
2023/03/13 09:09:38;;;;;;;6.30;3.07;;;;;;;;;;4996792;28;20208;-89
2023/03/13 09:12:05;;;;;;;4.73;2.60;;;;;;;;;;5013221;28;20221;-91
2023/03/13 09:14:31;;;;;;;4.40;2.80;;;;;;;;;;5013304;28;20177;-90
2023/03/13 09:16:58;;;;;;;6.17;2.83;;;;;;;;;;4990374;28;20192;-90
2023/03/13 09:19:24;;;;;;;6.67;2.87;;;;;;;;;;4993211;28;20205;-91
2023/03/13 09:21:50;;;;;;;6.67;2.67;;;;;;;;;;4993291;28;20186;-82
2023/03/13 09:24:16;;;;;;;8.53;2.80;;;;;;;;;;4995891;28;20272;-82
2023/03/13 09:26:42;;;;;;;6.53;2.73;;;;;;;;;;4996341;28;20273;-82
2023/03/13 09:29:09;;;;;;;7.43;2.80;;;;;;;;;;4996361;28;20193;-82
2023/03/13 09:31:37;;;;;;;10.20;2.83;;;;;;;;;;4997003;28;20202;-91
2023/03/13 09:34:03;;;;;;;6.47;2.50;;;;;;;;;;4997556;28;20277;-90
2023/03/13 09:36:29;;;;;;;7.33;2.47;;;;;;;;;;4996917;28;20217;-90
2023/03/13 09:38:57;;;;;;;6.83;2.23;;;;;;;;;;4996998;28;20182;-92
2023/03/13 09:41:34;;;;;;;5.90;2.23;;;;;;;;;;4996584;28;20232;-81
2023/03/13 09:44:07;;;;;;;4.13;2.10;;;;;;;;;;4996219;28;20181;-80
2023/03/13 09:46:37;;;;;;;7.17;2.20;;;;;;;;;;4996215;28;20182;-80
2023/03/13 09:49:08;;;;;;;6.40;2.50;;;;;;;;;;4996522;28;20178;-80
2023/03/13 09:51:41;;;;;;;5.07;2.40;;;;;;;;;;4996361;28;20201;-80
2023/03/13 09:54:19;;;;;;;7.77;2.33;;;;;;;;;;4996453;28;20281;-80
2023/03/13 09:56:47;;;;;;;6.00;2.40;;;;;;;;;;4995780;28;20181;-80
2023/03/13 09:59:19;;;;;;;6.90;2.30;;;;;;;;;;4996516;28;20248;-84
2023/03/13 10:01:47;;;;;;;5.37;2.60;;;;;;;;;;4996037;28;20280;-83
2023/03/13 10:04:19;;;;;;;6.47;2.70;;;;;;;;;;4996123;28;20181;-82
2023/03/13 10:06:47;;;;;;;5.57;2.47;;;;;;;;;;4995890;28;20178;-82
2023/03/13 10:09:33;;;;;;;6.47;2.43;;;;;;;;;;4995667;28;20186;-83
2023/03/13 10:12:14;;;;;;;4.10;2.40;;;;;;;;;;4995653;28;20209;-82
2023/03/13 10:14:47;;;;;;;5.83;2.43;;;;;;;;;;4995638;28;20185;-81
2023/03/13 10:17:18;;;;;;;6.20;2.20;;;;;;;;;;4995531;28;20178;-81
2023/03/13 10:19:47;;;;;;;6.07;2.50;;;;;;;;;;4995884;28;20193;-81
2023/03/13 10:22:18;;;;;;;6.00;2.30;;;;;;;;;;4996048;28;20174;-90
2023/03/13 10:25:02;;;;;;;5.50;2.37;;;;;;;;;;4996041;28;20178;-90
2023/03/13 10:27:28;;;;;;;7.93;2.70;;;;;;;;;;4996410;28;20180;-89
2023/03/13 10:29:54;;;;;;;6.03;2.30;;;;;;;;;;4995504;28;20190;-91
2023/03/13 10:32:20;;;;;;;6.73;2.20;;;;;;;;;;4995975;28;20206;-89
2023/03/13 10:34:46;;;;;;;6.37;2.57;;;;;;;;;;4994649;28;20187;-89
2023/03/13 10:37:17;;;;;;;7.60;2.57;;;;;;;;;;4995275;28;20182;-90
2023/03/13 10:39:43;;;;;;;6.23;2.50;;;;;;;;;;4995250;28;20181;-91
2023/03/13 10:42:10;;;;;;;4.77;2.33;;;;;;;;;;4995560;28;20181;-89
2023/03/13 10:44:37;;;;;;;6.20;2.43;;;;;;;;;;4995907;28;20186;-89
2023/03/13 10:47:03;;;;;;;6.77;2.60;;;;;;;;;;4995281;28;20182;-91
2023/03/13 10:49:30;;;;;;;5.40;2.33;;;;;;;;;;4996520;28;20184;-90
2023/03/13 10:51:58;;;;;;;4.50;2.50;;;;;;;;;;4996075;28;20216;-89
2023/03/13 10:54:25;;;;;;;6.30;2.50;;;;;;;;;;4995025;28;20185;-90
2023/03/13 10:56:54;;;;;;;5.23;2.30;;;;;;;;;;4994867;28;20182;-91
2023/03/13 10:59:25;;;;;;;4.53;2.20;;;;;;;;;;4994981;28;20178;-90
2023/03/13 11:01:52;;;;;;;6.00;2.40;;;;;;;;;;4994560;28;20232;-90
2023/03/13 11:04:19;;;;;;;3.47;2.20;;;;;;;;;;4994840;28;20182;-90
2023/03/13 11:06:58;;;;;;;5.93;2.10;;;;;;;;;;4994711;28;20186;-90
2023/03/13 11:09:26;;;;;;;3.47;2.23;;;;;;;;;;4994716;28;20186;-90
2023/03/13 11:11:53;;;;;;;6.50;2.30;;;;;;;;;;5010623;28;20206;-90
2023/03/13 11:14:20;;;;;;;4.80;2.00;;;;;;;;;;4995220;28;20236;-90
2023/03/13 11:16:48;;;;;;;3.93;2.00;;;;;;;;;;4994507;28;20178;-90
2023/03/13 11:19:14;;;;;;;5.70;2.03;;;;;;;;;;4995574;28;20213;-83
2023/03/13 11:21:49;;;;;;;4.43;2.27;;;;;;;;;;4994465;28;20212;-83
2023/03/13 11:24:20;;;;;;;3.50;1.90;;;;;;;;;;4995283;28;20178;-84
2023/03/13 11:26:58;;;;;;;3.83;1.83;;;;;;;;;;4995482;28;20185;-80
2023/03/13 11:29:31;;;;;;;6.03;2.00;;;;;;;;;;4994327;28;20204;-80
2023/03/13 11:32:00;;;;;;;5.40;2.03;;;;;;;;;;4994067;28;20233;-80
2023/03/13 11:34:48;;;;;;;3.20;1.70;;;;;;;;;;4994110;28;20281;-81
2023/03/13 11:37:15;;;;;;;3.33;1.70;;;;;;;;;;4994225;28;20182;-89
2023/03/13 11:39:53;;;;;;;3.90;1.80;;;;;;;;;;4994094;28;20239;-88
2023/03/13 11:42:34;;;;;;;4.97;1.70;;;;;;;;;;4994190;28;20187;-87
2023/03/13 11:45:08;;;;;;;4.60;1.70;;;;;;;;;;4994030;28;20285;-87
2023/03/13 11:47:40;;;;;;;3.70;1.60;;;;;;;;;;4993958;28;20178;-89
2023/03/13 11:50:38;;;;;;;3.27;1.70;;;;;;;;;;4994353;28;20185;-88
2023/03/13 11:53:23;;;;;;;2.63;1.53;;;;;;;;;;4982989;28;20279;-89
2023/03/13 11:55:53;;;;;;;3.27;1.70;;;;;;;;;;4993805;28;20217;-86
2023/03/13 11:58:32;;;;;;;2.20;1.57;;;;;;;;;;4993759;28;20213;-86
2023/03/13 12:01:01;;;;;;;4.27;1.70;;;;;;;;;;4993759;28;20181;-86
2023/03/13 12:03:36;;;;;;;4.30;1.60;;;;;;;;;;4993845;28;20185;-86
2023/03/13 12:06:03;;;;;;;2.43;1.50;;;;;;;;;;4994113;28;20173;-86
2023/03/13 12:08:47;;;;;;;4.43;1.77;;;;;;;;;;4994695;28;20249;-86
2023/03/13 12:11:19;;;;;;;3.20;1.47;;;;;;;;;;4993954;28;20233;-89
2023/03/13 12:14:06;;;;;;;3.17;1.60;;;;;;;;;;4993827;28;20209;-82
2023/03/13 12:16:47;;;;;;;6.07;1.80;;;;;;;;;;4993432;28;20271;-82
2023/03/13 12:19:16;;;;;;;3.67;1.90;;;;;;;;;;4993586;28;20178;-82
2023/03/13 12:21:52;;;;;;;4.73;1.67;;;;;;;;;;4993900;28;20232;-81
2023/03/13 12:24:19;;;;;;;4.30;1.63;;;;;;;;;;5009944;28;20193;-81
2023/03/13 12:26:48;;;;;;;3.70;1.60;;;;;;;;;;4993865;28;20209;-82
2023/03/13 12:29:33;;;;;;;3.17;1.50;;;;;;;;;;4994839;28;20189;-88
2023/03/13 12:32:06;;;;;;;3.10;1.57;;;;;;;;;;4993551;28;20220;-89
2023/03/13 12:34:42;;;;;;;5.57;2.00;;;;;;;;;;4993769;28;20178;-88
2023/03/13 12:37:14;;;;;;;3.60;1.57;;;;;;;;;;4993581;28;20182;-87
2023/03/13 12:39:51;;;;;;;6.33;1.73;;;;;;;;;;4994496;28;20178;-89
2023/03/13 12:42:39;;;;;;;6.13;1.70;;;;;;;;;;4993617;28;20182;-88
2023/03/13 12:45:07;;;;;;;4.73;1.60;;;;;;;;;;4993232;28;20212;-83
2023/03/13 12:47:33;;;;;;;5.77;1.70;;;;;;;;;;4993719;28;20221;-83
2023/03/13 12:50:11;;;;;;;4.87;1.70;;;;;;;;;;4993151;28;20182;-83
2023/03/13 12:52:42;;;;;;;5.53;2.13;;;;;;;;;;4993162;28;20265;-83
2023/03/13 12:55:08;;;;;;;6.47;1.80;;;;;;;;;;4993245;28;20178;-83
2023/03/13 12:57:53;;;;;;;5.63;1.70;;;;;;;;;;4993621;28;20181;-83
2023/03/13 13:00:25;;;;;;;3.30;1.40;;;;;;;;;;4996927;28;20178;-83
2023/03/13 13:03:20;;;;;;;4.37;1.87;;;;;;;;;;4996845;28;20240;-83
2023/03/13 13:06:07;;;;;;;4.73;2.10;;;;;;;;;;4992347;28;20225;-83
2023/03/13 13:08:43;;;;;;;4.30;1.70;;;;;;;;;;4996720;28;20189;-83
2023/03/13 13:11:27;;;;;;;5.00;1.97;;;;;;;;;;4996699;28;20184;-84
2023/03/13 13:13:53;;;;;;;3.33;1.50;;;;;;;;;;4996794;28;20254;-84
2023/03/13 13:16:21;;;;;;;4.73;2.07;;;;;;;;;;4996723;28;20201;-84
2023/03/13 13:18:47;;;;;;;4.37;1.70;;;;;;;;;;4996741;28;20178;-89
2023/03/13 13:21:17;;;;;;;4.70;1.70;;;;;;;;;;4996604;28;20182;-87
2023/03/13 13:23:47;;;;;;;6.23;1.83;;;;;;;;;;4997001;28;20178;-88
2023/03/13 13:26:36;;;;;;;4.77;1.77;;;;;;;;;;4997226;28;20197;-86
2023/03/13 13:29:11;;;;;;;3.33;1.80;;;;;;;;;;4997208;28;20260;-86
2023/03/13 13:31:45;;;;;;;3.13;1.60;;;;;;;;;;4996657;28;20248;-85
2023/03/13 13:34:33;;;;;;;3.80;1.70;;;;;;;;;;4996790;28;20242;-87
2023/03/13 13:37:03;;;;;;;5.23;1.83;;;;;;;;;;4986505;28;20182;-88
2023/03/13 13:39:42;;;;;;;3.87;1.80;;;;;;;;;;4996402;28;20186;-88
2023/03/13 13:42:27;;;;;;;3.60;1.80;;;;;;;;;;4996402;28;20204;-88
2023/03/13 13:45:00;;;;;;;4.30;1.60;;;;;;;;;;4996742;28;20182;-89
2023/03/13 13:47:27;;;;;;;5.43;1.60;;;;;;;;;;4996779;28;20182;-89
2023/03/13 13:49:55;;;;;;;4.47;1.67;;;;;;;;;;4996531;28;20178;-88
2023/03/13 13:52:35;;;;;;;5.57;1.40;;;;;;;;;;4996637;28;20209;-82
2023/03/13 13:55:02;;;;;;;6.67;1.83;;;;;;;;;;4995851;28;20173;-81
2023/03/13 13:57:32;;;;;;;5.23;1.63;;;;;;;;;;4995733;28;20217;-81
2023/03/13 14:00:15;;;;;;;4.03;1.90;;;;;;;;;;4995556;28;20181;-81
2023/03/13 14:02:57;;;;;;;4.03;1.63;;;;;;;;;;4995560;28;20304;-79
2023/03/13 14:05:28;;;;;;;5.83;1.73;;;;;;;;;;4995702;28;20182;-80
2023/03/13 14:08:07;;;;;;;6.77;1.73;;;;;;;;;;4996061;28;20272;-82
2023/03/13 14:10:33;;;;;;;5.83;1.83;;;;;;;;;;4994496;28;20178;-82
2023/03/13 14:13:01;;;;;;;5.57;1.80;;;;;;;;;;4995766;28;20209;-83
2023/03/13 14:15:28;;;;;;;6.47;1.50;;;;;;;;;;4995926;28;20182;-82
2023/03/13 14:17:59;;;;;;;5.40;1.80;;;;;;;;;;4995672;28;20182;-83
2023/03/13 14:20:33;;;;;;;4.27;1.83;;;;;;;;;;4995923;28;20182;-83
2023/03/13 14:23:01;;;;;;;5.10;1.70;;;;;;;;;;4995514;28;20182;-82
2023/03/13 14:25:27;;;;;;;4.53;1.63;;;;;;;;;;4995486;28;20220;-80
2023/03/13 14:27:54;;;;;;;7.13;2.40;;;;;;;;;;4995833;28;20240;-80
2023/03/13 14:30:21;;;;;;;6.83;1.80;;;;;;;;;;4996275;28;20273;-80
2023/03/13 14:32:47;;;;;;;4.17;1.80;;;;;;;;;;4995544;28;20224;-80
2023/03/13 14:35:15;;;;;;;4.23;1.93;;;;;;;;;;4995277;28;20186;-80
2023/03/13 14:37:43;;;;;;;5.07;1.77;;;;;;;;;;4995521;28;20200;-80
2023/03/13 14:40:29;;;;;;;5.43;1.90;;;;;;;;;;4995181;28;20170;-80
2023/03/13 14:42:57;;;;;;;6.87;2.00;;;;;;;;;;4995098;28;20209;-83
2023/03/13 14:45:23;;;;;;;6.60;2.00;;;;;;;;;;4995308;28;20181;-82